Time;durP1;ratioP1;P1;durP2;ratioP2;P2;SDS_P1;SDS_P2;PMS_P1;PMS_P2;Temp;Humidity;BMP_temperature;BMP_pressure;BME280_temperature;BME280_humidity;BME280_pressure;Samples;Min_cycle;Max_cycle;Signal;HPM_P1;HPM_P2
2022/04/07 00:00:05;;;;;;;9.73;2.47;;;;;;;;;;5054498;28;20107;-66
2022/04/07 00:02:31;;;;;;;10.75;2.50;;;;;;;;;;5054118;28;20028;-64
2022/04/07 00:04:57;;;;;;;12.05;2.60;;;;;;;;;;5066014;28;20041;-64
2022/04/07 00:07:22;;;;;;;11.50;2.30;;;;;;;;;;5064420;28;20032;-64
2022/04/07 00:09:48;;;;;;;8.82;2.45;;;;;;;;;;5044561;28;20388;-66
2022/04/07 00:12:14;;;;;;;13.52;3.03;;;;;;;;;;5053682;28;20103;-64
2022/04/07 00:14:40;;;;;;;10.75;2.60;;;;;;;;;;5032712;28;20041;-63
2022/04/07 00:17:06;;;;;;;15.38;2.53;;;;;;;;;;5057007;28;20131;-63
2022/04/07 00:19:32;;;;;;;9.90;2.35;;;;;;;;;;5061073;28;20032;-64
2022/04/07 00:21:59;;;;;;;15.82;2.88;;;;;;;;;;5071941;28;20029;-65
2022/04/07 00:24:25;;;;;;;13.32;2.50;;;;;;;;;;5057170;28;20033;-66
2022/04/07 00:26:51;;;;;;;13.85;2.75;;;;;;;;;;5064752;28;20074;-62
2022/04/07 00:29:17;;;;;;;18.33;2.50;;;;;;;;;;5043901;28;20468;-66
2022/04/07 00:31:43;;;;;;;11.88;2.53;;;;;;;;;;5056333;28;20021;-62
2022/04/07 00:34:10;;;;;;;16.45;2.88;;;;;;;;;;5068845;28;20387;-65
2022/04/07 00:36:36;;;;;;;11.82;2.83;;;;;;;;;;5063985;28;20353;-62
2022/04/07 00:39:03;;;;;;;15.48;3.13;;;;;;;;;;5051491;28;20033;-63
2022/04/07 00:41:29;;;;;;;12.48;2.58;;;;;;;;;;5052131;28;20025;-63
2022/04/07 00:43:55;;;;;;;11.07;2.42;;;;;;;;;;5052046;28;20079;-66
2022/04/07 00:46:21;;;;;;;11.93;2.80;;;;;;;;;;5052232;28;20389;-67
2022/04/07 00:48:47;;;;;;;13.98;2.90;;;;;;;;;;5026888;28;20483;-65
2022/04/07 00:51:13;;;;;;;12.02;2.33;;;;;;;;;;5064368;28;20021;-62
2022/04/07 00:53:40;;;;;;;12.07;2.97;;;;;;;;;;5058964;28;20422;-64
2022/04/07 00:56:09;;;;;;;13.63;2.50;;;;;;;;;;5072197;28;20482;-66
2022/04/07 00:58:36;;;;;;;12.25;2.58;;;;;;;;;;5059482;28;20063;-65
2022/04/07 01:01:01;;;;;;;11.95;3.03;;;;;;;;;;5063448;28;20085;-64
2022/04/07 01:03:27;;;;;;;16.13;2.72;;;;;;;;;;5069499;28;20032;-65
2022/04/07 01:05:53;;;;;;;12.77;2.85;;;;;;;;;;5066927;28;20103;-63
2022/04/07 01:08:20;;;;;;;11.80;2.67;;;;;;;;;;5051397;28;20028;-65
2022/04/07 01:10:47;;;;;;;14.50;2.55;;;;;;;;;;5053966;28;20040;-64
2022/04/07 01:13:13;;;;;;;12.55;2.88;;;;;;;;;;5042947;28;20058;-64
2022/04/07 01:15:39;;;;;;;12.30;2.67;;;;;;;;;;5039972;28;20103;-66
2022/04/07 01:18:05;;;;;;;20.73;3.03;;;;;;;;;;5064531;28;20373;-63
2022/04/07 01:20:32;;;;;;;12.95;2.60;;;;;;;;;;5067850;28;20028;-63
2022/04/07 01:22:58;;;;;;;9.75;2.20;;;;;;;;;;5061729;28;20024;-64
2022/04/07 01:25:28;;;;;;;13.18;3.28;;;;;;;;;;5051721;28;20037;-63
2022/04/07 01:27:54;;;;;;;11.50;2.63;;;;;;;;;;5046787;28;20048;-65
2022/04/07 01:30:20;;;;;;;13.95;2.70;;;;;;;;;;5058606;28;20036;-65
2022/04/07 01:32:48;;;;;;;11.40;2.83;;;;;;;;;;5071394;28;20025;-63
2022/04/07 01:35:14;;;;;;;9.48;2.70;;;;;;;;;;5049270;28;20020;-64
2022/04/07 01:37:43;;;;;;;14.18;2.78;;;;;;;;;;5072042;28;20017;-66
2022/04/07 01:40:11;;;;;;;13.10;2.70;;;;;;;;;;5060109;28;20029;-66
2022/04/07 01:42:38;;;;;;;10.63;3.00;;;;;;;;;;5055998;28;20549;-63
2022/04/07 01:45:04;;;;;;;10.68;2.45;;;;;;;;;;5054031;28;20045;-66
2022/04/07 01:47:32;;;;;;;13.05;2.83;;;;;;;;;;5057219;28;20120;-65
2022/04/07 01:50:08;;;;;;;12.88;2.78;;;;;;;;;;5062663;28;20104;-66
2022/04/07 01:52:37;;;;;;;14.73;2.78;;;;;;;;;;5058410;28;20061;-65
2022/04/07 01:55:04;;;;;;;11.57;2.88;;;;;;;;;;5059826;28;20104;-66
2022/04/07 01:57:31;;;;;;;16.55;3.00;;;;;;;;;;5060820;28;20021;-65
2022/04/07 01:59:58;;;;;;;10.90;3.25;;;;;;;;;;5061482;28;20047;-64
2022/04/07 02:02:24;;;;;;;9.70;2.70;;;;;;;;;;5068215;28;20024;-65
2022/04/07 02:04:56;;;;;;;11.25;2.53;;;;;;;;;;5068035;28;20119;-65
2022/04/07 02:07:23;;;;;;;14.23;3.15;;;;;;;;;;5058874;28;20029;-66
2022/04/07 02:09:49;;;;;;;14.73;2.55;;;;;;;;;;5069187;28;20028;-67
2022/04/07 02:12:17;;;;;;;12.93;2.95;;;;;;;;;;5060250;28;20473;-65
2022/04/07 02:14:45;;;;;;;11.55;2.72;;;;;;;;;;5063564;28;20052;-67
2022/04/07 02:17:11;;;;;;;17.20;3.58;;;;;;;;;;5037266;28;20385;-66
2022/04/07 02:19:38;;;;;;;16.85;3.53;;;;;;;;;;5060286;28;20028;-66
2022/04/07 02:22:04;;;;;;;17.27;2.75;;;;;;;;;;5072448;28;20107;-66
2022/04/07 02:24:31;;;;;;;18.15;3.75;;;;;;;;;;5066647;28;20040;-66
2022/04/07 02:26:57;;;;;;;15.15;3.28;;;;;;;;;;5072058;28;20514;-62
2022/04/07 02:29:22;;;;;;;22.52;4.05;;;;;;;;;;5052701;28;20025;-65
2022/04/07 02:31:48;;;;;;;15.18;3.30;;;;;;;;;;5053706;28;20155;-66
2022/04/07 02:34:14;;;;;;;19.15;3.63;;;;;;;;;;5067969;28;20020;-67
2022/04/07 02:36:40;;;;;;;23.17;4.05;;;;;;;;;;5056959;28;20020;-69
2022/04/07 02:39:06;;;;;;;17.42;3.53;;;;;;;;;;5072845;28;20416;-64
2022/04/07 02:41:32;;;;;;;19.17;4.25;;;;;;;;;;5054758;28;20399;-66
2022/04/07 02:44:02;;;;;;;19.17;3.72;;;;;;;;;;5053041;28;20033;-65
2022/04/07 02:46:28;;;;;;;18.85;4.45;;;;;;;;;;5066095;28;20033;-67
2022/04/07 02:48:54;;;;;;;22.10;4.15;;;;;;;;;;5056239;28;20040;-64
2022/04/07 02:51:20;;;;;;;18.95;4.25;;;;;;;;;;5054421;28;20017;-67
2022/04/07 02:53:46;;;;;;;17.30;3.60;;;;;;;;;;5066850;28;20026;-67
2022/04/07 02:56:12;;;;;;;19.65;3.95;;;;;;;;;;5074496;28;20039;-67
2022/04/07 02:58:38;;;;;;;19.45;4.00;;;;;;;;;;5044720;28;20679;-66
2022/04/07 03:01:04;;;;;;;22.25;4.13;;;;;;;;;;5071696;28;20119;-67
2022/04/07 03:03:30;;;;;;;22.35;4.35;;;;;;;;;;5059977;28;20067;-63
2022/04/07 03:05:56;;;;;;;19.63;4.18;;;;;;;;;;5068574;28;20021;-65
2022/04/07 03:08:22;;;;;;;23.52;4.80;;;;;;;;;;5063286;28;20078;-64
2022/04/07 03:10:48;;;;;;;17.83;4.22;;;;;;;;;;5052121;28;20033;-65
2022/04/07 03:13:14;;;;;;;17.83;4.30;;;;;;;;;;5063832;28;20459;-65
2022/04/07 03:15:40;;;;;;;22.80;4.80;;;;;;;;;;5062856;28;20056;-66
2022/04/07 03:18:06;;;;;;;14.35;3.53;;;;;;;;;;5054008;28;20060;-66
2022/04/07 03:20:32;;;;;;;18.80;3.78;;;;;;;;;;5067456;28;20044;-65
2022/04/07 03:22:58;;;;;;;14.68;4.00;;;;;;;;;;5065229;28;20439;-66
2022/04/07 03:25:24;;;;;;;18.60;3.70;;;;;;;;;;5060720;28;20040;-66
2022/04/07 03:27:50;;;;;;;16.08;3.72;;;;;;;;;;5063178;28;20020;-65
2022/04/07 03:30:16;;;;;;;20.70;4.35;;;;;;;;;;5056073;28;20104;-66
2022/04/07 03:32:42;;;;;;;15.30;3.40;;;;;;;;;;5055497;28;20032;-66
2022/04/07 03:35:08;;;;;;;15.80;3.80;;;;;;;;;;5059291;28;20028;-66
2022/04/07 03:37:34;;;;;;;17.63;3.50;;;;;;;;;;5056956;28;20429;-67
2022/04/07 03:39:59;;;;;;;12.45;2.90;;;;;;;;;;5064617;28;20082;-66
2022/04/07 03:42:25;;;;;;;14.57;3.35;;;;;;;;;;5050472;28;20378;-62
2022/04/07 03:44:51;;;;;;;16.25;3.40;;;;;;;;;;5064483;28;20036;-67
2022/04/07 03:47:17;;;;;;;15.57;3.58;;;;;;;;;;5060322;28;20104;-65
2022/04/07 03:49:43;;;;;;;16.35;3.47;;;;;;;;;;5049235;28;20032;-67
2022/04/07 03:52:09;;;;;;;19.50;3.45;;;;;;;;;;5059976;28;20060;-65
2022/04/07 03:54:35;;;;;;;13.45;3.08;;;;;;;;;;5059162;28;20040;-66
2022/04/07 03:57:02;;;;;;;14.27;3.22;;;;;;;;;;5064753;28;20460;-67
2022/04/07 03:59:29;;;;;;;13.60;3.00;;;;;;;;;;5063512;28;20033;-65
2022/04/07 04:01:55;;;;;;;12.95;2.78;;;;;;;;;;5036487;28;20382;-64
2022/04/07 04:04:22;;;;;;;13.90;2.95;;;;;;;;;;5066850;28;20456;-66
2022/04/07 04:06:48;;;;;;;18.10;3.60;;;;;;;;;;5067522;28;20545;-67
2022/04/07 04:09:14;;;;;;;14.98;3.30;;;;;;;;;;5054789;28;20356;-66
2022/04/07 04:11:40;;;;;;;16.90;3.75;;;;;;;;;;5062503;28;20562;-66
2022/04/07 04:14:06;;;;;;;12.00;2.40;;;;;;;;;;5045720;28;20044;-65
2022/04/07 04:16:32;;;;;;;10.82;2.80;;;;;;;;;;5055031;28;20388;-66
2022/04/07 04:18:58;;;;;;;10.93;2.60;;;;;;;;;;5034186;28;20503;-66
2022/04/07 04:21:24;;;;;;;14.35;2.60;;;;;;;;;;5068264;28;20076;-66
2022/04/07 04:23:50;;;;;;;17.83;3.25;;;;;;;;;;5070129;28;20033;-66
2022/04/07 04:26:15;;;;;;;9.98;2.90;;;;;;;;;;5068193;28;20587;-66
2022/04/07 04:28:41;;;;;;;12.13;2.67;;;;;;;;;;5058298;28;20029;-67
2022/04/07 04:31:07;;;;;;;12.90;2.95;;;;;;;;;;5060777;28;20488;-66
2022/04/07 04:33:33;;;;;;;12.45;2.53;;;;;;;;;;5057718;28;20032;-66
2022/04/07 04:35:59;;;;;;;11.32;2.28;;;;;;;;;;5072853;28;20064;-64
2022/04/07 04:38:25;;;;;;;11.57;2.40;;;;;;;;;;5058899;28;20025;-67
2022/04/07 04:40:51;;;;;;;10.00;2.42;;;;;;;;;;5049101;28;20040;-65
2022/04/07 04:43:17;;;;;;;9.43;2.30;;;;;;;;;;5067924;28;20033;-67
2022/04/07 04:45:43;;;;;;;11.07;2.03;;;;;;;;;;5061441;28;20064;-60
2022/04/07 04:48:10;;;;;;;11.93;2.13;;;;;;;;;;5035258;28;20021;-62
2022/04/07 04:50:36;;;;;;;11.70;2.45;;;;;;;;;;5053422;28;20029;-67
2022/04/07 04:53:02;;;;;;;9.45;2.72;;;;;;;;;;5056720;28;20017;-68
2022/04/07 04:55:28;;;;;;;11.85;2.13;;;;;;;;;;5044661;28;20028;-66
2022/04/07 04:57:54;;;;;;;7.78;2.22;;;;;;;;;;5067512;28;20033;-67
2022/04/07 05:00:20;;;;;;;8.90;1.98;;;;;;;;;;5059542;28;20033;-67
2022/04/07 05:02:46;;;;;;;8.07;1.98;;;;;;;;;;5051236;28;20033;-67
2022/04/07 05:05:12;;;;;;;5.82;1.52;;;;;;;;;;5056166;28;20032;-67
2022/04/07 05:07:38;;;;;;;7.63;2.15;;;;;;;;;;5053617;28;20031;-62
2022/04/07 05:10:05;;;;;;;7.60;1.80;;;;;;;;;;5036405;28;20435;-66
2022/04/07 05:12:31;;;;;;;7.22;1.83;;;;;;;;;;5051736;28;20406;-67
2022/04/07 05:14:57;;;;;;;7.28;2.13;;;;;;;;;;5053988;28;20045;-67
2022/04/07 05:17:23;;;;;;;8.80;2.00;;;;;;;;;;5056334;28;20029;-67
2022/04/07 05:19:50;;;;;;;7.13;1.60;;;;;;;;;;5056517;28;20036;-61
2022/04/07 05:22:16;;;;;;;7.68;1.77;;;;;;;;;;5059203;28;20021;-66
2022/04/07 05:24:42;;;;;;;13.93;1.92;;;;;;;;;;5055890;28;20041;-65
2022/04/07 05:27:08;;;;;;;9.95;2.17;;;;;;;;;;5053175;28;20065;-67
2022/04/07 05:29:34;;;;;;;5.95;1.65;;;;;;;;;;5051223;28;20104;-67
2022/04/07 05:32:00;;;;;;;14.80;1.95;;;;;;;;;;5040935;28;20012;-68
2022/04/07 05:34:26;;;;;;;12.25;2.10;;;;;;;;;;5057920;28;20029;-67
2022/04/07 05:36:52;;;;;;;34.13;2.70;;;;;;;;;;5042966;28;20478;-67
2022/04/07 05:39:18;;;;;;;27.50;2.45;;;;;;;;;;5041989;28;20067;-70
2022/04/07 05:41:44;;;;;;;33.00;2.90;;;;;;;;;;5063955;28;20527;-67
2022/04/07 05:44:10;;;;;;;30.95;2.45;;;;;;;;;;5050657;28;20030;-71
2022/04/07 05:46:36;;;;;;;48.35;2.67;;;;;;;;;;5058473;28;20048;-64
2022/04/07 05:49:02;;;;;;;26.13;2.78;;;;;;;;;;5059060;28;20530;-64
2022/04/07 05:51:28;;;;;;;32.33;2.65;;;;;;;;;;5052333;28;20427;-65
2022/04/07 05:53:54;;;;;;;23.48;2.25;;;;;;;;;;5054607;28;20511;-65
2022/04/07 05:56:20;;;;;;;24.27;2.33;;;;;;;;;;5055627;28;20033;-65
2022/04/07 05:58:46;;;;;;;28.10;3.10;;;;;;;;;;5061363;28;20020;-63
2022/04/07 06:01:12;;;;;;;22.00;2.83;;;;;;;;;;5066652;28;20035;-64
2022/04/07 06:03:40;;;;;;;26.38;2.53;;;;;;;;;;5069966;28;20032;-62
2022/04/07 06:06:06;;;;;;;18.10;2.58;;;;;;;;;;5066921;28;20082;-63
2022/04/07 06:08:32;;;;;;;22.88;2.20;;;;;;;;;;5051642;28;20031;-65
2022/04/07 06:10:58;;;;;;;16.83;2.40;;;;;;;;;;5064373;28;20037;-62
2022/04/07 06:13:24;;;;;;;17.92;1.80;;;;;;;;;;5039338;28;20140;-64
2022/04/07 06:15:50;;;;;;;22.42;2.15;;;;;;;;;;5056095;28;20021;-65
2022/04/07 06:18:16;;;;;;;33.42;2.22;;;;;;;;;;5055632;28;20067;-61
2022/04/07 06:20:42;;;;;;;20.33;1.85;;;;;;;;;;5053200;28;20020;-65
2022/04/07 06:23:09;;;;;;;24.65;1.75;;;;;;;;;;5058422;28;20049;-63
2022/04/07 06:25:35;;;;;;;19.88;2.22;;;;;;;;;;5059409;28;20044;-65
2022/04/07 06:28:04;;;;;;;10.82;1.63;;;;;;;;;;5056009;28;20490;-63
2022/04/07 06:30:30;;;;;;;12.70;1.40;;;;;;;;;;5057930;28;20364;-62
2022/04/07 06:32:56;;;;;;;12.00;1.38;;;;;;;;;;5056864;28;20025;-64
2022/04/07 06:35:23;;;;;;;6.43;1.30;;;;;;;;;;5054459;28;20033;-61
2022/04/07 06:37:52;;;;;;;7.70;1.70;;;;;;;;;;5056221;28;20389;-62
2022/04/07 06:40:20;;;;;;;11.50;1.73;;;;;;;;;;5057013;28;20439;-62
2022/04/07 06:42:46;;;;;;;7.70;1.30;;;;;;;;;;5059818;28;20020;-62
2022/04/07 06:45:12;;;;;;;4.55;1.20;;;;;;;;;;5055546;28;20062;-60
2022/04/07 06:47:41;;;;;;;4.88;1.33;;;;;;;;;;5059481;28;20021;-62
2022/04/07 06:50:10;;;;;;;9.25;1.40;;;;;;;;;;5056979;28;20055;-63
2022/04/07 06:52:36;;;;;;;5.32;1.17;;;;;;;;;;5033701;28;20021;-63
2022/04/07 06:55:03;;;;;;;9.43;1.67;;;;;;;;;;5054169;28;20500;-62
2022/04/07 06:57:29;;;;;;;6.25;1.20;;;;;;;;;;5056646;28;20124;-62
2022/04/07 06:59:55;;;;;;;4.97;1.20;;;;;;;;;;5058025;28;20048;-62
2022/04/07 07:02:21;;;;;;;7.55;1.15;;;;;;;;;;5055389;28;20167;-60
2022/04/07 07:04:47;;;;;;;6.10;1.40;;;;;;;;;;5056065;28;20375;-64
2022/04/07 07:07:13;;;;;;;9.48;1.50;;;;;;;;;;5035697;28;20028;-64
2022/04/07 07:09:39;;;;;;;7.80;1.17;;;;;;;;;;5057432;28;20629;-62
2022/04/07 07:12:06;;;;;;;8.45;1.50;;;;;;;;;;5058603;28;20035;-62
2022/04/07 07:14:32;;;;;;;5.05;1.20;;;;;;;;;;5053862;28;20445;-63
2022/04/07 07:16:58;;;;;;;6.53;1.20;;;;;;;;;;5058456;28;20515;-61
2022/04/07 07:19:26;;;;;;;9.90;1.13;;;;;;;;;;5059116;28;20027;-62
2022/04/07 07:21:53;;;;;;;2.95;0.85;;;;;;;;;;5058362;28;20017;-61
2022/04/07 07:24:19;;;;;;;10.10;1.10;;;;;;;;;;5040768;28;20111;-62
2022/04/07 07:26:45;;;;;;;5.60;1.17;;;;;;;;;;5053973;28;20021;-62
2022/04/07 07:29:11;;;;;;;8.55;1.00;;;;;;;;;;5053924;28;20021;-62
2022/04/07 07:31:37;;;;;;;5.43;1.00;;;;;;;;;;5052657;28;20027;-61
2022/04/07 07:34:03;;;;;;;5.53;1.00;;;;;;;;;;5055058;28;20029;-62
2022/04/07 07:36:30;;;;;;;3.40;0.90;;;;;;;;;;5034486;28;20098;-62
2022/04/07 07:38:56;;;;;;;4.75;1.00;;;;;;;;;;5052355;28;20052;-63
2022/04/07 07:41:23;;;;;;;3.53;0.90;;;;;;;;;;5052879;28;20056;-63
2022/04/07 07:43:49;;;;;;;4.18;0.70;;;;;;;;;;5052453;28;20059;-63
2022/04/07 07:46:16;;;;;;;2.95;0.90;;;;;;;;;;5054816;28;20052;-62
2022/04/07 07:48:42;;;;;;;2.33;0.98;;;;;;;;;;5059782;28;20009;-63
2022/04/07 07:51:08;;;;;;;4.32;1.00;;;;;;;;;;5051242;28;20041;-64
2022/04/07 07:53:34;;;;;;;6.50;1.10;;;;;;;;;;5031926;28;20036;-62
2022/04/07 07:56:00;;;;;;;3.05;0.90;;;;;;;;;;5036210;28;20036;-61
2022/04/07 07:58:26;;;;;;;1.60;0.60;;;;;;;;;;5054153;28;20020;-62
2022/04/07 08:00:53;;;;;;;3.67;0.80;;;;;;;;;;5033802;28;20017;-63
2022/04/07 08:03:19;;;;;;;4.93;1.20;;;;;;;;;;5050216;28;20380;-61
2022/04/07 08:05:45;;;;;;;6.43;1.00;;;;;;;;;;5050269;28;20368;-62
2022/04/07 08:08:11;;;;;;;3.00;1.02;;;;;;;;;;5051651;28;20025;-62
2022/04/07 08:10:37;;;;;;;7.57;1.13;;;;;;;;;;5047633;28;20021;-61
2022/04/07 08:13:03;;;;;;;2.65;0.75;;;;;;;;;;5050941;28;20357;-63
2022/04/07 08:15:31;;;;;;;8.63;1.25;;;;;;;;;;5052820;28;20020;-62
2022/04/07 08:17:57;;;;;;;8.73;0.90;;;;;;;;;;5055999;28;20039;-63
2022/04/07 08:20:23;;;;;;;4.80;0.98;;;;;;;;;;5050285;28;20452;-63
2022/04/07 08:22:49;;;;;;;6.75;1.20;;;;;;;;;;5051986;28;20033;-64
2022/04/07 08:25:15;;;;;;;9.85;1.20;;;;;;;;;;5053532;28;20716;-62
2022/04/07 08:27:41;;;;;;;4.53;0.90;;;;;;;;;;5054089;28;20021;-62
2022/04/07 08:30:07;;;;;;;9.85;1.05;;;;;;;;;;5033295;28;20437;-64
2022/04/07 08:32:33;;;;;;;5.70;0.90;;;;;;;;;;5032300;28;20060;-64
2022/04/07 08:35:00;;;;;;;4.78;1.30;;;;;;;;;;5053516;28;20060;-64
2022/04/07 08:37:26;;;;;;;7.45;1.25;;;;;;;;;;5055213;28;20396;-63
2022/04/07 08:39:52;;;;;;;4.63;0.85;;;;;;;;;;5056440;28;20027;-63
2022/04/07 08:42:26;;;;;;;10.43;1.45;;;;;;;;;;5049711;28;20096;-63
2022/04/07 08:44:52;;;;;;;5.70;0.93;;;;;;;;;;5051491;28;20061;-63
2022/04/07 08:47:22;;;;;;;6.30;1.27;;;;;;;;;;5057558;28;20021;-62
2022/04/07 08:49:51;;;;;;;6.78;1.48;;;;;;;;;;5051998;28;20021;-63
2022/04/07 08:52:17;;;;;;;3.58;0.95;;;;;;;;;;5046852;28;20029;-63
2022/04/07 08:54:47;;;;;;;7.60;1.20;;;;;;;;;;5056698;28;20480;-63
2022/04/07 08:57:14;;;;;;;7.30;1.63;;;;;;;;;;5038114;28;20071;-63
2022/04/07 08:59:54;;;;;;;8.07;1.23;;;;;;;;;;5033382;28;20052;-62
2022/04/07 09:02:21;;;;;;;4.72;1.33;;;;;;;;;;5050710;28;20024;-63
2022/04/07 09:04:47;;;;;;;7.65;1.48;;;;;;;;;;5048095;28;20032;-64
2022/04/07 09:07:14;;;;;;;6.55;1.25;;;;;;;;;;5035554;28;20363;-63
2022/04/07 09:09:40;;;;;;;7.82;1.60;;;;;;;;;;5055189;28;20104;-63
2022/04/07 09:12:07;;;;;;;7.07;1.75;;;;;;;;;;5057468;28;20164;-63
2022/04/07 09:14:34;;;;;;;8.00;1.67;;;;;;;;;;5051995;28;20053;-63
2022/04/07 09:17:01;;;;;;;10.82;1.67;;;;;;;;;;5053938;28;20064;-64
2022/04/07 09:19:28;;;;;;;11.07;1.90;;;;;;;;;;5035195;28;20025;-65
2022/04/07 09:22:11;;;;;;;9.70;1.77;;;;;;;;;;5052458;28;20029;-63
2022/04/07 09:24:37;;;;;;;9.30;1.90;;;;;;;;;;5032633;28;20110;-63
2022/04/07 09:27:07;;;;;;;11.10;1.92;;;;;;;;;;5037592;28;20362;-65
2022/04/07 09:29:46;;;;;;;8.77;2.05;;;;;;;;;;5049657;28;20104;-63
2022/04/07 09:32:20;;;;;;;10.02;2.10;;;;;;;;;;5044026;28;20025;-64
2022/04/07 09:35:06;;;;;;;8.75;1.92;;;;;;;;;;5031243;28;20345;-63
2022/04/07 09:37:33;;;;;;;8.35;1.60;;;;;;;;;;5048197;28;20029;-64
2022/04/07 09:40:07;;;;;;;8.27;1.73;;;;;;;;;;5054566;28;20040;-63
2022/04/07 09:42:34;;;;;;;8.38;2.33;;;;;;;;;;5046039;28;20045;-63
2022/04/07 09:45:01;;;;;;;9.15;1.98;;;;;;;;;;5048715;28;20093;-63
2022/04/07 09:47:41;;;;;;;8.27;2.20;;;;;;;;;;5052134;28;20422;-63
2022/04/07 09:50:08;;;;;;;8.95;1.63;;;;;;;;;;5034898;28;20036;-64
2022/04/07 09:52:38;;;;;;;8.68;1.95;;;;;;;;;;5051728;28;20021;-63
2022/04/07 09:55:06;;;;;;;15.52;2.47;;;;;;;;;;5026621;28;20464;-63
2022/04/07 09:57:33;;;;;;;8.30;2.00;;;;;;;;;;5058353;28;20059;-62
2022/04/07 10:00:01;;;;;;;14.27;2.63;;;;;;;;;;5052519;28;20040;-63
2022/04/07 10:02:29;;;;;;;7.63;1.80;;;;;;;;;;5056555;28;20056;-64
2022/04/07 10:04:56;;;;;;;10.02;2.53;;;;;;;;;;5064549;28;20047;-65
2022/04/07 10:07:23;;;;;;;13.98;2.40;;;;;;;;;;5060367;28;20048;-64
2022/04/07 10:09:49;;;;;;;11.65;2.28;;;;;;;;;;5054002;28;20403;-64
2022/04/07 10:12:16;;;;;;;11.38;2.10;;;;;;;;;;5044731;28;20124;-64
2022/04/07 10:14:43;;;;;;;13.77;2.28;;;;;;;;;;5053301;28;20523;-63
2022/04/07 10:17:13;;;;;;;18.33;2.83;;;;;;;;;;5045516;28;20068;-63
2022/04/07 10:19:45;;;;;;;9.65;2.25;;;;;;;;;;5049102;28;20145;-63
2022/04/07 10:22:20;;;;;;;14.75;2.78;;;;;;;;;;5053496;28;20021;-63
2022/04/07 10:24:47;;;;;;;13.85;2.50;;;;;;;;;;5051444;28;20036;-62
2022/04/07 10:27:15;;;;;;;10.57;2.55;;;;;;;;;;5061035;28;20090;-63
2022/04/07 10:29:41;;;;;;;11.23;2.60;;;;;;;;;;5055642;28;20116;-62
2022/04/07 10:32:19;;;;;;;17.50;3.10;;;;;;;;;;5048139;28;20033;-62
2022/04/07 10:34:58;;;;;;;13.23;2.42;;;;;;;;;;5048221;28;20041;-63
2022/04/07 10:37:44;;;;;;;10.18;2.55;;;;;;;;;;5049867;28;20021;-65
2022/04/07 10:40:44;;;;;;;10.85;2.72;;;;;;;;;;5053222;28;20025;-64
2022/04/07 10:43:21;;;;;;;15.80;2.85;;;;;;;;;;5006041;28;20499;-64
2022/04/07 10:46:08;;;;;;;12.48;2.63;;;;;;;;;;5035369;28;20090;-62
2022/04/07 10:48:34;;;;;;;11.05;2.60;;;;;;;;;;5055153;28;20028;-64
2022/04/07 10:51:01;;;;;;;16.85;3.30;;;;;;;;;;5035571;28;20056;-63
2022/04/07 10:53:28;;;;;;;15.75;3.03;;;;;;;;;;5056103;28;20011;-63
2022/04/07 10:55:56;;;;;;;13.63;2.95;;;;;;;;;;5056829;28;20414;-64
2022/04/07 10:58:36;;;;;;;14.57;3.33;;;;;;;;;;5055337;28;20040;-63
2022/04/07 11:01:03;;;;;;;11.32;3.03;;;;;;;;;;5054604;28;20040;-64
2022/04/07 11:03:33;;;;;;;14.95;3.17;;;;;;;;;;5055510;28;20139;-64
2022/04/07 11:06:00;;;;;;;13.85;3.10;;;;;;;;;;5058043;28;20062;-64
2022/04/07 11:08:26;;;;;;;12.65;3.00;;;;;;;;;;5058697;28;20036;-63
2022/04/07 11:10:55;;;;;;;12.13;2.88;;;;;;;;;;5064728;28;20035;-64
2022/04/07 11:13:40;;;;;;;15.38;3.03;;;;;;;;;;5050246;28;20040;-64
2022/04/07 11:16:14;;;;;;;18.83;3.40;;;;;;;;;;5046090;28;20396;-64
2022/04/07 11:18:56;;;;;;;20.50;3.50;;;;;;;;;;5065040;28;20423;-64
2022/04/07 11:21:23;;;;;;;19.83;3.50;;;;;;;;;;5047696;28;20044;-63
2022/04/07 11:23:49;;;;;;;15.82;3.17;;;;;;;;;;5061751;28;20025;-64
2022/04/07 11:26:24;;;;;;;17.02;3.33;;;;;;;;;;5061777;28;20070;-64
2022/04/07 11:29:03;;;;;;;16.23;3.17;;;;;;;;;;5057601;28;20021;-63
2022/04/07 11:31:45;;;;;;;14.98;3.00;;;;;;;;;;5043435;28;20156;-66
2022/04/07 11:34:30;;;;;;;13.38;3.28;;;;;;;;;;5050864;28;20028;-65
2022/04/07 11:36:56;;;;;;;15.20;3.03;;;;;;;;;;5059481;28;20111;-64
2022/04/07 11:39:23;;;;;;;14.85;2.72;;;;;;;;;;5060581;28;20450;-63
2022/04/07 11:41:49;;;;;;;15.98;3.20;;;;;;;;;;5058430;28;20163;-63
2022/04/07 11:44:17;;;;;;;15.13;2.97;;;;;;;;;;5063113;28;20024;-64
2022/04/07 11:46:43;;;;;;;21.30;3.10;;;;;;;;;;5060621;28;20029;-65
2022/04/07 11:49:11;;;;;;;17.17;3.35;;;;;;;;;;5052984;28;20024;-64
2022/04/07 11:51:39;;;;;;;15.85;3.05;;;;;;;;;;5054609;28;20471;-63
2022/04/07 11:54:06;;;;;;;18.10;3.30;;;;;;;;;;5050368;28;20040;-64
2022/04/07 11:56:32;;;;;;;19.38;3.25;;;;;;;;;;5052797;28;20028;-62
2022/04/07 11:59:11;;;;;;;19.23;3.20;;;;;;;;;;5045025;28;20044;-65
2022/04/07 12:01:38;;;;;;;20.45;3.20;;;;;;;;;;5038700;28;20377;-64
2022/04/07 12:04:05;;;;;;;13.32;2.85;;;;;;;;;;5029955;28;20032;-64
2022/04/07 12:06:32;;;;;;;19.88;3.75;;;;;;;;;;5051904;28;20078;-64
2022/04/07 12:08:59;;;;;;;19.33;3.35;;;;;;;;;;5052176;28;20468;-63
2022/04/07 12:11:26;;;;;;;15.88;3.17;;;;;;;;;;5037701;28;20447;-65
2022/04/07 12:13:53;;;;;;;21.70;4.13;;;;;;;;;;5049416;28;20183;-63
2022/04/07 12:16:22;;;;;;;18.25;3.50;;;;;;;;;;5050994;28;20044;-67
2022/04/07 12:18:58;;;;;;;16.85;3.63;;;;;;;;;;5056604;28;20025;-67
2022/04/07 12:21:25;;;;;;;17.60;3.25;;;;;;;;;;5052168;28;20028;-66
2022/04/07 12:24:13;;;;;;;17.75;3.65;;;;;;;;;;5063201;28;20048;-66
2022/04/07 12:26:42;;;;;;;25.00;5.45;;;;;;;;;;5031651;28;20044;-67
2022/04/07 12:29:08;;;;;;;19.70;5.05;;;;;;;;;;5039343;28;20055;-67
2022/04/07 12:31:34;;;;;;;21.15;4.13;;;;;;;;;;5051213;28;20112;-67
2022/04/07 12:34:12;;;;;;;13.30;4.43;;;;;;;;;;5050682;28;20056;-67
2022/04/07 12:36:39;;;;;;;20.27;4.63;;;;;;;;;;5055726;28;20127;-67
2022/04/07 12:39:09;;;;;;;16.45;4.78;;;;;;;;;;5061783;28;20035;-67
2022/04/07 12:41:43;;;;;;;21.92;4.25;;;;;;;;;;5064324;28;20028;-67
2022/04/07 12:44:09;;;;;;;18.98;3.80;;;;;;;;;;5071583;28;20162;-66
2022/04/07 12:46:48;;;;;;;22.10;4.20;;;;;;;;;;5040219;28;20036;-67
2022/04/07 12:49:15;;;;;;;17.00;3.83;;;;;;;;;;5047852;28;20013;-67
2022/04/07 12:51:41;;;;;;;15.88;3.70;;;;;;;;;;5048368;28;20032;-63
2022/04/07 12:54:08;;;;;;;18.30;3.90;;;;;;;;;;5045686;28;20041;-61
2022/04/07 12:56:37;;;;;;;14.45;3.75;;;;;;;;;;5053710;28;20033;-64
2022/04/07 12:59:04;;;;;;;23.98;4.13;;;;;;;;;;5044051;28;20028;-61
2022/04/07 13:01:33;;;;;;;15.70;3.42;;;;;;;;;;5046860;28;20037;-69
2022/04/07 13:03:59;;;;;;;18.55;3.75;;;;;;;;;;5054856;28;20134;-70
2022/04/07 13:06:26;;;;;;;18.15;3.65;;;;;;;;;;5055234;28;20063;-68
2022/04/07 13:08:53;;;;;;;17.80;3.45;;;;;;;;;;5054789;28;20032;-67
2022/04/07 13:11:32;;;;;;;30.48;3.78;;;;;;;;;;5031765;28;20025;-71
2022/04/07 13:13:58;;;;;;;33.45;3.88;;;;;;;;;;5051907;28;20397;-69
2022/04/07 13:16:24;;;;;;;20.73;3.40;;;;;;;;;;5051893;28;20107;-66
2022/04/07 13:18:50;;;;;;;24.30;4.35;;;;;;;;;;5054345;28;20028;-67
2022/04/07 13:21:16;;;;;;;17.55;3.72;;;;;;;;;;5050914;28;20021;-70
2022/04/07 13:23:42;;;;;;;20.95;4.05;;;;;;;;;;5050869;28;20017;-70
2022/04/07 13:26:08;;;;;;;17.27;3.88;;;;;;;;;;5058657;28;20033;-69
2022/04/07 13:28:34;;;;;;;16.30;3.65;;;;;;;;;;5050655;28;20067;-70
2022/04/07 13:31:02;;;;;;;17.95;3.90;;;;;;;;;;5052547;28;20033;-68
2022/04/07 13:33:28;;;;;;;26.48;3.67;;;;;;;;;;5051654;28;20008;-63
2022/04/07 13:35:55;;;;;;;23.67;3.92;;;;;;;;;;5056809;28;20479;-68
2022/04/07 13:38:22;;;;;;;20.73;4.28;;;;;;;;;;5058998;28;20025;-64
2022/04/07 13:40:49;;;;;;;12.70;2.90;;;;;;;;;;5052943;28;20017;-62
2022/04/07 13:43:16;;;;;;;25.02;3.22;;;;;;;;;;5048210;28;20457;-65
2022/04/07 13:45:44;;;;;;;18.77;3.30;;;;;;;;;;5053473;28;20033;-67
2022/04/07 13:48:11;;;;;;;17.67;3.40;;;;;;;;;;5050501;28;20027;-66
2022/04/07 13:50:37;;;;;;;19.80;3.58;;;;;;;;;;5034862;28;20183;-66
2022/04/07 13:53:03;;;;;;;23.98;3.45;;;;;;;;;;5040547;28;20032;-64
2022/04/07 13:55:32;;;;;;;15.80;3.05;;;;;;;;;;5044426;28;20522;-62
2022/04/07 13:57:58;;;;;;;34.85;3.75;;;;;;;;;;5060400;28;20030;-62
2022/04/07 14:00:25;;;;;;;20.48;3.45;;;;;;;;;;5059693;28;20041;-62
2022/04/07 14:02:51;;;;;;;22.02;3.42;;;;;;;;;;5063064;28;20036;-61
2022/04/07 14:05:17;;;;;;;20.42;3.33;;;;;;;;;;5069174;28;20119;-66
2022/04/07 14:07:43;;;;;;;41.60;3.50;;;;;;;;;;5036496;28;20180;-65
2022/04/07 14:10:10;;;;;;;24.30;3.30;;;;;;;;;;5051150;28;20025;-63
2022/04/07 14:12:36;;;;;;;30.60;3.92;;;;;;;;;;5054366;28;21508;-62
2022/04/07 14:15:02;;;;;;;43.25;4.85;;;;;;;;;;5057030;28;20053;-66
2022/04/07 14:17:29;;;;;;;20.20;3.40;;;;;;;;;;5056708;28;20017;-68
2022/04/07 14:19:55;;;;;;;33.22;3.92;;;;;;;;;;5055788;28;20029;-68
2022/04/07 14:22:21;;;;;;;23.63;3.47;;;;;;;;;;5037518;28;20028;-67
2022/04/07 14:24:47;;;;;;;32.10;3.45;;;;;;;;;;5057899;28;20040;-67
2022/04/07 14:27:13;;;;;;;35.38;3.13;;;;;;;;;;5053813;28;20021;-67
2022/04/07 14:29:39;;;;;;;21.73;3.28;;;;;;;;;;5059590;28;20365;-64
2022/04/07 14:32:05;;;;;;;16.98;3.03;;;;;;;;;;5054552;28;20455;-66
2022/04/07 14:34:31;;;;;;;30.67;3.15;;;;;;;;;;5041584;28;20013;-64